sensor_id;sensor_type;location;lat;lon;timestamp;P1;durP1;ratioP1;P2;durP2;ratioP2
1358;SDS011;673;48.098;14.422;2023-04-26T00:01:18;8.63;;;7.47;;
1358;SDS011;673;48.098;14.422;2023-04-26T00:03:46;8.07;;;6.30;;
1358;SDS011;673;48.098;14.422;2023-04-26T00:06:15;8.53;;;6.60;;
1358;SDS011;673;48.098;14.422;2023-04-26T00:08:41;8.20;;;7.20;;
1358;SDS011;673;48.098;14.422;2023-04-26T00:11:08;8.30;;;6.43;;
1358;SDS011;673;48.098;14.422;2023-04-26T00:13:35;6.93;;;5.70;;
1358;SDS011;673;48.098;14.422;2023-04-26T00:16:02;7.50;;;6.63;;
1358;SDS011;673;48.098;14.422;2023-04-26T00:18:30;7.03;;;5.67;;
1358;SDS011;673;48.098;14.422;2023-04-26T00:20:57;8.60;;;5.40;;
1358;SDS011;673;48.098;14.422;2023-04-26T00:23:25;7.00;;;6.20;;
1358;SDS011;673;48.098;14.422;2023-04-26T00:25:52;7.40;;;6.67;;
1358;SDS011;673;48.098;14.422;2023-04-26T00:28:19;6.03;;;4.80;;
1358;SDS011;673;48.098;14.422;2023-04-26T00:30:46;6.70;;;5.13;;
1358;SDS011;673;48.098;14.422;2023-04-26T00:33:15;7.07;;;6.40;;
1358;SDS011;673;48.098;14.422;2023-04-26T00:35:42;8.53;;;6.27;;
1358;SDS011;673;48.098;14.422;2023-04-26T00:38:09;10.17;;;6.40;;
1358;SDS011;673;48.098;14.422;2023-04-26T00:40:37;5.90;;;5.30;;
1358;SDS011;673;48.098;14.422;2023-04-26T00:43:04;8.27;;;6.63;;
1358;SDS011;673;48.098;14.422;2023-04-26T00:45:32;6.07;;;4.83;;
1358;SDS011;673;48.098;14.422;2023-04-26T00:48:00;6.37;;;5.47;;
1358;SDS011;673;48.098;14.422;2023-04-26T00:50:28;5.80;;;5.10;;
1358;SDS011;673;48.098;14.422;2023-04-26T00:52:56;7.83;;;5.60;;
1358;SDS011;673;48.098;14.422;2023-04-26T00:55:24;6.20;;;4.80;;
1358;SDS011;673;48.098;14.422;2023-04-26T00:57:53;7.30;;;5.30;;
1358;SDS011;673;48.098;14.422;2023-04-26T01:00:20;4.70;;;4.30;;
1358;SDS011;673;48.098;14.422;2023-04-26T01:02:47;7.60;;;6.10;;
1358;SDS011;673;48.098;14.422;2023-04-26T01:05:15;7.23;;;5.23;;
1358;SDS011;673;48.098;14.422;2023-04-26T01:07:42;7.33;;;5.07;;
1358;SDS011;673;48.098;14.422;2023-04-26T01:10:10;8.03;;;5.10;;
1358;SDS011;673;48.098;14.422;2023-04-26T01:12:37;11.47;;;6.50;;
1358;SDS011;673;48.098;14.422;2023-04-26T01:15:06;6.20;;;5.47;;
1358;SDS011;673;48.098;14.422;2023-04-26T01:17:34;6.17;;;5.23;;
1358;SDS011;673;48.098;14.422;2023-04-26T01:20:02;4.67;;;4.30;;
1358;SDS011;673;48.098;14.422;2023-04-26T01:22:32;7.50;;;5.67;;
1358;SDS011;673;48.098;14.422;2023-04-26T01:25:00;6.83;;;5.10;;
1358;SDS011;673;48.098;14.422;2023-04-26T01:27:31;5.60;;;4.00;;
1358;SDS011;673;48.098;14.422;2023-04-26T01:29:58;6.07;;;5.20;;
1358;SDS011;673;48.098;14.422;2023-04-26T01:32:25;4.83;;;4.40;;
1358;SDS011;673;48.098;14.422;2023-04-26T01:34:52;8.30;;;5.47;;
1358;SDS011;673;48.098;14.422;2023-04-26T01:37:19;6.17;;;5.20;;
1358;SDS011;673;48.098;14.422;2023-04-26T01:39:47;7.37;;;5.87;;
1358;SDS011;673;48.098;14.422;2023-04-26T01:42:14;8.90;;;7.47;;
1358;SDS011;673;48.098;14.422;2023-04-26T01:44:41;8.10;;;5.93;;
1358;SDS011;673;48.098;14.422;2023-04-26T01:47:08;6.70;;;4.63;;
1358;SDS011;673;48.098;14.422;2023-04-26T01:49:35;6.00;;;4.80;;
1358;SDS011;673;48.098;14.422;2023-04-26T01:52:02;8.97;;;6.60;;
1358;SDS011;673;48.098;14.422;2023-04-26T01:54:30;5.97;;;4.90;;
1358;SDS011;673;48.098;14.422;2023-04-26T01:56:58;5.60;;;4.97;;
1358;SDS011;673;48.098;14.422;2023-04-26T01:59:25;6.63;;;6.03;;
1358;SDS011;673;48.098;14.422;2023-04-26T02:01:53;8.83;;;6.10;;
1358;SDS011;673;48.098;14.422;2023-04-26T02:04:20;8.90;;;5.60;;
1358;SDS011;673;48.098;14.422;2023-04-26T02:06:48;5.77;;;5.17;;
1358;SDS011;673;48.098;14.422;2023-04-26T02:09:15;10.10;;;6.27;;
1358;SDS011;673;48.098;14.422;2023-04-26T02:11:43;6.93;;;5.30;;
1358;SDS011;673;48.098;14.422;2023-04-26T02:14:11;7.23;;;6.10;;
1358;SDS011;673;48.098;14.422;2023-04-26T02:16:39;11.13;;;7.60;;
1358;SDS011;673;48.098;14.422;2023-04-26T02:19:07;7.40;;;5.33;;
1358;SDS011;673;48.098;14.422;2023-04-26T02:21:48;7.17;;;4.90;;
1358;SDS011;673;48.098;14.422;2023-04-26T02:24:16;9.30;;;5.97;;
1358;SDS011;673;48.098;14.422;2023-04-26T02:26:43;9.50;;;7.40;;
1358;SDS011;673;48.098;14.422;2023-04-26T02:29:12;8.33;;;6.40;;
1358;SDS011;673;48.098;14.422;2023-04-26T02:31:39;7.43;;;6.63;;
1358;SDS011;673;48.098;14.422;2023-04-26T02:34:06;8.50;;;6.30;;
1358;SDS011;673;48.098;14.422;2023-04-26T02:36:33;5.97;;;4.93;;
1358;SDS011;673;48.098;14.422;2023-04-26T02:39:00;7.77;;;6.00;;
1358;SDS011;673;48.098;14.422;2023-04-26T02:41:27;7.40;;;5.87;;
1358;SDS011;673;48.098;14.422;2023-04-26T02:43:57;7.17;;;6.33;;
1358;SDS011;673;48.098;14.422;2023-04-26T02:46:25;11.47;;;6.87;;
1358;SDS011;673;48.098;14.422;2023-04-26T02:48:52;13.63;;;6.83;;
1358;SDS011;673;48.098;14.422;2023-04-26T02:51:19;9.60;;;6.40;;
1358;SDS011;673;48.098;14.422;2023-04-26T02:53:47;9.17;;;8.20;;
1358;SDS011;673;48.098;14.422;2023-04-26T02:56:14;8.97;;;5.93;;
1358;SDS011;673;48.098;14.422;2023-04-26T02:58:41;7.53;;;6.07;;
1358;SDS011;673;48.098;14.422;2023-04-26T03:01:08;8.00;;;5.33;;
1358;SDS011;673;48.098;14.422;2023-04-26T03:03:37;7.60;;;6.33;;
1358;SDS011;673;48.098;14.422;2023-04-26T03:06:05;11.87;;;8.37;;
1358;SDS011;673;48.098;14.422;2023-04-26T03:08:32;6.70;;;5.50;;
1358;SDS011;673;48.098;14.422;2023-04-26T03:11:00;8.40;;;6.40;;
1358;SDS011;673;48.098;14.422;2023-04-26T03:13:27;8.77;;;5.77;;
1358;SDS011;673;48.098;14.422;2023-04-26T03:15:54;7.50;;;6.03;;
1358;SDS011;673;48.098;14.422;2023-04-26T03:18:21;7.80;;;5.10;;
1358;SDS011;673;48.098;14.422;2023-04-26T03:20:50;9.07;;;6.00;;
1358;SDS011;673;48.098;14.422;2023-04-26T03:23:17;7.93;;;5.70;;
1358;SDS011;673;48.098;14.422;2023-04-26T03:25:48;8.63;;;5.40;;
1358;SDS011;673;48.098;14.422;2023-04-26T03:28:15;6.90;;;6.13;;
1358;SDS011;673;48.098;14.422;2023-04-26T03:30:42;7.67;;;5.07;;
1358;SDS011;673;48.098;14.422;2023-04-26T03:33:09;5.40;;;4.40;;
1358;SDS011;673;48.098;14.422;2023-04-26T03:35:37;6.53;;;3.80;;
1358;SDS011;673;48.098;14.422;2023-04-26T03:38:05;7.20;;;5.10;;
1358;SDS011;673;48.098;14.422;2023-04-26T03:40:32;8.40;;;5.17;;
1358;SDS011;673;48.098;14.422;2023-04-26T03:42:59;6.53;;;4.27;;
1358;SDS011;673;48.098;14.422;2023-04-26T03:45:27;4.10;;;3.70;;
1358;SDS011;673;48.098;14.422;2023-04-26T03:47:54;4.53;;;3.60;;
1358;SDS011;673;48.098;14.422;2023-04-26T03:50:21;6.50;;;4.30;;
1358;SDS011;673;48.098;14.422;2023-04-26T03:52:48;4.03;;;2.70;;
1358;SDS011;673;48.098;14.422;2023-04-26T03:55:16;6.20;;;3.90;;
1358;SDS011;673;48.098;14.422;2023-04-26T03:57:43;8.00;;;4.67;;
1358;SDS011;673;48.098;14.422;2023-04-26T04:00:11;6.90;;;3.93;;
1358;SDS011;673;48.098;14.422;2023-04-26T04:02:39;5.23;;;3.23;;
1358;SDS011;673;48.098;14.422;2023-04-26T04:05:06;4.07;;;3.63;;
1358;SDS011;673;48.098;14.422;2023-04-26T04:07:34;6.60;;;3.40;;
1358;SDS011;673;48.098;14.422;2023-04-26T04:10:01;7.60;;;4.20;;
1358;SDS011;673;48.098;14.422;2023-04-26T04:12:30;5.37;;;3.60;;
1358;SDS011;673;48.098;14.422;2023-04-26T04:14:57;5.73;;;3.80;;
1358;SDS011;673;48.098;14.422;2023-04-26T04:17:24;7.53;;;4.53;;
1358;SDS011;673;48.098;14.422;2023-04-26T04:19:51;8.67;;;5.07;;
1358;SDS011;673;48.098;14.422;2023-04-26T04:22:18;7.73;;;3.90;;
1358;SDS011;673;48.098;14.422;2023-04-26T04:24:45;6.30;;;4.70;;
1358;SDS011;673;48.098;14.422;2023-04-26T04:27:12;6.40;;;4.20;;
1358;SDS011;673;48.098;14.422;2023-04-26T04:29:40;9.63;;;4.80;;
1358;SDS011;673;48.098;14.422;2023-04-26T04:32:07;8.87;;;4.53;;
1358;SDS011;673;48.098;14.422;2023-04-26T04:34:35;5.77;;;4.13;;
1358;SDS011;673;48.098;14.422;2023-04-26T04:37:02;8.80;;;4.40;;
1358;SDS011;673;48.098;14.422;2023-04-26T04:39:29;4.60;;;3.70;;
1358;SDS011;673;48.098;14.422;2023-04-26T04:41:56;5.57;;;4.17;;
1358;SDS011;673;48.098;14.422;2023-04-26T04:44:24;5.70;;;3.80;;
1358;SDS011;673;48.098;14.422;2023-04-26T04:46:53;4.40;;;3.60;;
1358;SDS011;673;48.098;14.422;2023-04-26T04:49:20;7.30;;;4.77;;
1358;SDS011;673;48.098;14.422;2023-04-26T04:51:48;5.90;;;3.97;;
1358;SDS011;673;48.098;14.422;2023-04-26T04:54:16;3.63;;;3.23;;
1358;SDS011;673;48.098;14.422;2023-04-26T04:56:43;3.97;;;3.57;;
1358;SDS011;673;48.098;14.422;2023-04-26T04:59:11;3.53;;;3.23;;
1358;SDS011;673;48.098;14.422;2023-04-26T05:01:38;5.97;;;4.60;;
1358;SDS011;673;48.098;14.422;2023-04-26T05:04:06;3.70;;;3.10;;
1358;SDS011;673;48.098;14.422;2023-04-26T05:06:33;4.77;;;3.43;;
1358;SDS011;673;48.098;14.422;2023-04-26T05:09:01;6.80;;;4.90;;
1358;SDS011;673;48.098;14.422;2023-04-26T05:11:29;6.97;;;4.40;;
1358;SDS011;673;48.098;14.422;2023-04-26T05:13:57;6.30;;;3.80;;
1358;SDS011;673;48.098;14.422;2023-04-26T05:16:24;7.90;;;4.10;;
1358;SDS011;673;48.098;14.422;2023-04-26T05:18:51;4.77;;;3.50;;
1358;SDS011;673;48.098;14.422;2023-04-26T05:21:20;5.00;;;3.90;;
1358;SDS011;673;48.098;14.422;2023-04-26T05:23:47;5.93;;;4.57;;
1358;SDS011;673;48.098;14.422;2023-04-26T05:26:15;7.10;;;5.07;;
1358;SDS011;673;48.098;14.422;2023-04-26T05:28:42;5.73;;;4.97;;
1358;SDS011;673;48.098;14.422;2023-04-26T05:31:10;8.43;;;4.90;;
1358;SDS011;673;48.098;14.422;2023-04-26T05:33:37;6.80;;;5.50;;
1358;SDS011;673;48.098;14.422;2023-04-26T05:36:04;5.93;;;4.13;;
1358;SDS011;673;48.098;14.422;2023-04-26T05:38:34;7.27;;;4.60;;
1358;SDS011;673;48.098;14.422;2023-04-26T05:41:02;8.53;;;4.50;;
1358;SDS011;673;48.098;14.422;2023-04-26T05:43:29;6.30;;;5.30;;
1358;SDS011;673;48.098;14.422;2023-04-26T05:45:56;5.33;;;4.33;;
1358;SDS011;673;48.098;14.422;2023-04-26T05:48:23;4.77;;;4.10;;
1358;SDS011;673;48.098;14.422;2023-04-26T05:50:50;8.10;;;5.37;;
1358;SDS011;673;48.098;14.422;2023-04-26T05:53:17;6.83;;;4.10;;
1358;SDS011;673;48.098;14.422;2023-04-26T05:55:46;6.10;;;3.93;;
1358;SDS011;673;48.098;14.422;2023-04-26T05:58:13;6.90;;;4.33;;
1358;SDS011;673;48.098;14.422;2023-04-26T06:00:40;4.17;;;3.77;;
1358;SDS011;673;48.098;14.422;2023-04-26T06:03:07;7.10;;;4.33;;
1358;SDS011;673;48.098;14.422;2023-04-26T06:05:35;4.33;;;3.70;;
1358;SDS011;673;48.098;14.422;2023-04-26T06:08:03;4.23;;;3.83;;
1358;SDS011;673;48.098;14.422;2023-04-26T06:10:30;4.50;;;4.10;;
1358;SDS011;673;48.098;14.422;2023-04-26T06:12:59;7.00;;;3.87;;
1358;SDS011;673;48.098;14.422;2023-04-26T06:15:26;6.87;;;4.00;;
1358;SDS011;673;48.098;14.422;2023-04-26T06:17:53;5.77;;;3.80;;
1358;SDS011;673;48.098;14.422;2023-04-26T06:20:20;4.70;;;3.57;;
1358;SDS011;673;48.098;14.422;2023-04-26T06:22:47;6.47;;;4.07;;
1358;SDS011;673;48.098;14.422;2023-04-26T06:25:14;5.93;;;4.93;;
1358;SDS011;673;48.098;14.422;2023-04-26T06:27:41;6.47;;;4.13;;
1358;SDS011;673;48.098;14.422;2023-04-26T06:30:10;4.97;;;4.10;;
1358;SDS011;673;48.098;14.422;2023-04-26T06:32:37;8.73;;;3.97;;
1358;SDS011;673;48.098;14.422;2023-04-26T06:35:06;4.40;;;3.80;;
1358;SDS011;673;48.098;14.422;2023-04-26T06:37:33;3.83;;;3.43;;
1358;SDS011;673;48.098;14.422;2023-04-26T06:40:00;5.40;;;4.30;;
1358;SDS011;673;48.098;14.422;2023-04-26T06:42:27;5.87;;;4.73;;
1358;SDS011;673;48.098;14.422;2023-04-26T06:44:54;9.13;;;5.30;;
1358;SDS011;673;48.098;14.422;2023-04-26T06:47:23;10.13;;;4.67;;
1358;SDS011;673;48.098;14.422;2023-04-26T06:49:50;8.40;;;4.80;;
1358;SDS011;673;48.098;14.422;2023-04-26T06:52:17;8.33;;;4.53;;
1358;SDS011;673;48.098;14.422;2023-04-26T06:54:45;6.40;;;4.47;;
1358;SDS011;673;48.098;14.422;2023-04-26T06:57:12;7.67;;;4.97;;
1358;SDS011;673;48.098;14.422;2023-04-26T06:59:39;5.00;;;4.40;;
1358;SDS011;673;48.098;14.422;2023-04-26T07:02:06;4.60;;;4.20;;
1358;SDS011;673;48.098;14.422;2023-04-26T07:04:35;5.70;;;5.10;;
1358;SDS011;673;48.098;14.422;2023-04-26T07:07:02;7.13;;;4.73;;
1358;SDS011;673;48.098;14.422;2023-04-26T07:09:29;15.60;;;10.00;;
1358;SDS011;673;48.098;14.422;2023-04-26T07:11:56;6.33;;;4.50;;
1358;SDS011;673;48.098;14.422;2023-04-26T07:14:23;7.77;;;4.60;;
1358;SDS011;673;48.098;14.422;2023-04-26T07:16:50;5.73;;;4.50;;
1358;SDS011;673;48.098;14.422;2023-04-26T07:19:20;6.90;;;4.50;;
1358;SDS011;673;48.098;14.422;2023-04-26T07:21:54;10.80;;;4.70;;
1358;SDS011;673;48.098;14.422;2023-04-26T07:24:21;7.23;;;4.20;;
1358;SDS011;673;48.098;14.422;2023-04-26T07:26:49;4.77;;;4.00;;
1358;SDS011;673;48.098;14.422;2023-04-26T07:29:16;5.20;;;4.10;;
1358;SDS011;673;48.098;14.422;2023-04-26T07:31:44;4.30;;;3.90;;
1358;SDS011;673;48.098;14.422;2023-04-26T07:34:11;10.80;;;4.50;;
1358;SDS011;673;48.098;14.422;2023-04-26T07:36:38;6.47;;;4.97;;
1358;SDS011;673;48.098;14.422;2023-04-26T07:39:06;6.03;;;4.33;;
1358;SDS011;673;48.098;14.422;2023-04-26T07:41:34;5.23;;;4.73;;
1358;SDS011;673;48.098;14.422;2023-04-26T07:44:01;5.13;;;4.63;;
1358;SDS011;673;48.098;14.422;2023-04-26T07:46:28;3.77;;;3.33;;
1358;SDS011;673;48.098;14.422;2023-04-26T07:48:56;6.97;;;5.20;;
1358;SDS011;673;48.098;14.422;2023-04-26T07:51:23;6.67;;;5.07;;
1358;SDS011;673;48.098;14.422;2023-04-26T07:53:51;7.43;;;3.27;;
1358;SDS011;673;48.098;14.422;2023-04-26T07:56:21;5.37;;;3.07;;
1358;SDS011;673;48.098;14.422;2023-04-26T07:58:49;5.57;;;4.77;;
1358;SDS011;673;48.098;14.422;2023-04-26T08:01:16;5.17;;;3.13;;
1358;SDS011;673;48.098;14.422;2023-04-26T08:03:43;5.00;;;2.83;;
1358;SDS011;673;48.098;14.422;2023-04-26T08:06:10;2.90;;;2.70;;
1358;SDS011;673;48.098;14.422;2023-04-26T08:08:36;4.07;;;3.70;;
1358;SDS011;673;48.098;14.422;2023-04-26T08:11:08;7.23;;;3.60;;
1358;SDS011;673;48.098;14.422;2023-04-26T08:13:37;6.67;;;3.23;;
1358;SDS011;673;48.098;14.422;2023-04-26T08:16:04;5.50;;;3.63;;
1358;SDS011;673;48.098;14.422;2023-04-26T08:18:31;5.70;;;4.77;;
1358;SDS011;673;48.098;14.422;2023-04-26T08:20:58;7.93;;;5.50;;
1358;SDS011;673;48.098;14.422;2023-04-26T08:23:25;18.53;;;9.80;;
1358;SDS011;673;48.098;14.422;2023-04-26T08:25:53;4.77;;;4.27;;
1358;SDS011;673;48.098;14.422;2023-04-26T08:28:20;8.60;;;5.00;;
1358;SDS011;673;48.098;14.422;2023-04-26T08:30:49;8.03;;;5.13;;
1358;SDS011;673;48.098;14.422;2023-04-26T08:33:16;8.93;;;6.40;;
1358;SDS011;673;48.098;14.422;2023-04-26T08:35:44;6.43;;;5.17;;
1358;SDS011;673;48.098;14.422;2023-04-26T08:38:11;7.70;;;4.60;;
1358;SDS011;673;48.098;14.422;2023-04-26T08:40:38;5.40;;;4.30;;
1358;SDS011;673;48.098;14.422;2023-04-26T08:43:07;17.40;;;5.30;;
1358;SDS011;673;48.098;14.422;2023-04-26T08:45:36;3.33;;;3.03;;
1358;SDS011;673;48.098;14.422;2023-04-26T08:48:09;4.20;;;3.10;;
1358;SDS011;673;48.098;14.422;2023-04-26T08:50:40;3.33;;;2.43;;
1358;SDS011;673;48.098;14.422;2023-04-26T08:53:12;5.03;;;2.83;;
1358;SDS011;673;48.098;14.422;2023-04-26T08:55:41;6.47;;;3.60;;
1358;SDS011;673;48.098;14.422;2023-04-26T08:58:13;3.67;;;2.57;;
1358;SDS011;673;48.098;14.422;2023-04-26T09:00:41;4.57;;;3.40;;
1358;SDS011;673;48.098;14.422;2023-04-26T09:03:11;5.50;;;4.33;;
1358;SDS011;673;48.098;14.422;2023-04-26T09:05:38;6.73;;;4.63;;
1358;SDS011;673;48.098;14.422;2023-04-26T09:08:08;4.70;;;4.20;;
1358;SDS011;673;48.098;14.422;2023-04-26T09:10:39;5.40;;;4.83;;
1358;SDS011;673;48.098;14.422;2023-04-26T09:13:06;4.27;;;3.90;;
1358;SDS011;673;48.098;14.422;2023-04-26T09:15:33;5.67;;;4.57;;
1358;SDS011;673;48.098;14.422;2023-04-26T09:18:18;6.70;;;6.20;;
1358;SDS011;673;48.098;14.422;2023-04-26T09:21:01;6.90;;;4.50;;
1358;SDS011;673;48.098;14.422;2023-04-26T09:23:29;4.40;;;4.00;;
1358;SDS011;673;48.098;14.422;2023-04-26T09:28:42;4.43;;;3.97;;
1358;SDS011;673;48.098;14.422;2023-04-26T09:31:10;3.67;;;3.00;;
1358;SDS011;673;48.098;14.422;2023-04-26T09:36:24;3.80;;;3.40;;
1358;SDS011;673;48.098;14.422;2023-04-26T09:38:51;4.40;;;3.60;;
1358;SDS011;673;48.098;14.422;2023-04-26T09:41:18;3.83;;;3.00;;
1358;SDS011;673;48.098;14.422;2023-04-26T09:43:45;4.67;;;3.83;;
1358;SDS011;673;48.098;14.422;2023-04-26T09:46:20;5.47;;;4.93;;
1358;SDS011;673;48.098;14.422;2023-04-26T09:49:00;6.20;;;3.77;;
1358;SDS011;673;48.098;14.422;2023-04-26T09:51:27;4.87;;;3.50;;
1358;SDS011;673;48.098;14.422;2023-04-26T09:53:54;3.97;;;3.23;;
1358;SDS011;673;48.098;14.422;2023-04-26T09:56:21;2.70;;;2.43;;
1358;SDS011;673;48.098;14.422;2023-04-26T09:58:55;4.53;;;2.40;;
1358;SDS011;673;48.098;14.422;2023-04-26T10:01:23;4.40;;;4.00;;
1358;SDS011;673;48.098;14.422;2023-04-26T10:03:53;4.00;;;3.43;;
1358;SDS011;673;48.098;14.422;2023-04-26T10:06:23;5.43;;;3.67;;
1358;SDS011;673;48.098;14.422;2023-04-26T10:08:52;4.63;;;3.77;;
1358;SDS011;673;48.098;14.422;2023-04-26T10:11:20;4.10;;;3.70;;
1358;SDS011;673;48.098;14.422;2023-04-26T10:13:47;3.33;;;3.00;;
1358;SDS011;673;48.098;14.422;2023-04-26T10:16:16;3.20;;;2.70;;
1358;SDS011;673;48.098;14.422;2023-04-26T10:18:44;6.53;;;3.30;;
1358;SDS011;673;48.098;14.422;2023-04-26T10:21:11;3.67;;;3.37;;
1358;SDS011;673;48.098;14.422;2023-04-26T10:23:46;5.20;;;3.30;;
1358;SDS011;673;48.098;14.422;2023-04-26T10:29:22;4.30;;;3.20;;
1358;SDS011;673;48.098;14.422;2023-04-26T10:32:08;9.00;;;3.93;;
1358;SDS011;673;48.098;14.422;2023-04-26T10:34:40;9.40;;;3.60;;
1358;SDS011;673;48.098;14.422;2023-04-26T10:37:10;5.47;;;3.90;;
1358;SDS011;673;48.098;14.422;2023-04-26T10:39:39;6.03;;;4.50;;
1358;SDS011;673;48.098;14.422;2023-04-26T10:42:16;5.63;;;3.80;;
1358;SDS011;673;48.098;14.422;2023-04-26T10:44:47;4.23;;;3.93;;
1358;SDS011;673;48.098;14.422;2023-04-26T10:47:21;5.03;;;4.07;;
1358;SDS011;673;48.098;14.422;2023-04-26T10:50:02;5.47;;;3.83;;
1358;SDS011;673;48.098;14.422;2023-04-26T10:52:31;7.23;;;3.53;;
1358;SDS011;673;48.098;14.422;2023-04-26T10:55:00;4.80;;;2.87;;
1358;SDS011;673;48.098;14.422;2023-04-26T11:00:27;4.33;;;3.20;;
1358;SDS011;673;48.098;14.422;2023-04-26T11:03:04;2.87;;;2.67;;
1358;SDS011;673;48.098;14.422;2023-04-26T11:05:33;3.47;;;2.00;;
1358;SDS011;673;48.098;14.422;2023-04-26T11:08:25;3.77;;;2.20;;
1358;SDS011;673;48.098;14.422;2023-04-26T11:13:41;2.87;;;2.20;;
1358;SDS011;673;48.098;14.422;2023-04-26T11:16:09;1.50;;;1.40;;
1358;SDS011;673;48.098;14.422;2023-04-26T11:18:38;3.93;;;1.73;;
1358;SDS011;673;48.098;14.422;2023-04-26T11:21:06;3.03;;;1.97;;
1358;SDS011;673;48.098;14.422;2023-04-26T11:23:34;3.97;;;2.77;;
1358;SDS011;673;48.098;14.422;2023-04-26T11:26:02;2.13;;;1.93;;
1358;SDS011;673;48.098;14.422;2023-04-26T11:28:32;5.73;;;2.60;;
1358;SDS011;673;48.098;14.422;2023-04-26T11:30:59;4.60;;;2.60;;
1358;SDS011;673;48.098;14.422;2023-04-26T11:33:28;3.90;;;2.10;;
1358;SDS011;673;48.098;14.422;2023-04-26T11:35:55;3.93;;;2.60;;
1358;SDS011;673;48.098;14.422;2023-04-26T11:38:23;3.90;;;2.73;;
1358;SDS011;673;48.098;14.422;2023-04-26T11:40:51;8.27;;;2.00;;
1358;SDS011;673;48.098;14.422;2023-04-26T11:43:20;5.70;;;2.87;;
1358;SDS011;673;48.098;14.422;2023-04-26T11:45:48;3.00;;;2.70;;
1358;SDS011;673;48.098;14.422;2023-04-26T11:48:15;4.10;;;3.13;;
1358;SDS011;673;48.098;14.422;2023-04-26T11:50:43;5.00;;;3.63;;
1358;SDS011;673;48.098;14.422;2023-04-26T11:53:11;6.37;;;2.20;;
1358;SDS011;673;48.098;14.422;2023-04-26T11:55:38;5.97;;;2.73;;
1358;SDS011;673;48.098;14.422;2023-04-26T11:58:09;4.00;;;3.57;;
1358;SDS011;673;48.098;14.422;2023-04-26T12:03:29;4.20;;;2.73;;
1358;SDS011;673;48.098;14.422;2023-04-26T12:05:57;3.37;;;1.70;;
1358;SDS011;673;48.098;14.422;2023-04-26T12:08:25;2.70;;;1.80;;
1358;SDS011;673;48.098;14.422;2023-04-26T12:10:52;2.93;;;2.20;;
1358;SDS011;673;48.098;14.422;2023-04-26T12:13:20;3.40;;;2.40;;
1358;SDS011;673;48.098;14.422;2023-04-26T12:15:47;4.30;;;2.87;;
1358;SDS011;673;48.098;14.422;2023-04-26T12:18:16;2.47;;;2.27;;
1358;SDS011;673;48.098;14.422;2023-04-26T12:20:43;2.80;;;2.00;;
1358;SDS011;673;48.098;14.422;2023-04-26T12:23:12;3.00;;;2.70;;
1358;SDS011;673;48.098;14.422;2023-04-26T12:25:40;3.87;;;1.63;;
1358;SDS011;673;48.098;14.422;2023-04-26T12:28:17;6.73;;;3.17;;
1358;SDS011;673;48.098;14.422;2023-04-26T12:30:44;6.20;;;2.70;;
1358;SDS011;673;48.098;14.422;2023-04-26T12:33:11;5.50;;;1.90;;
1358;SDS011;673;48.098;14.422;2023-04-26T12:35:40;3.37;;;2.03;;
1358;SDS011;673;48.098;14.422;2023-04-26T12:38:08;3.77;;;1.83;;
1358;SDS011;673;48.098;14.422;2023-04-26T12:40:36;3.00;;;1.93;;
1358;SDS011;673;48.098;14.422;2023-04-26T12:43:03;5.80;;;2.83;;
1358;SDS011;673;48.098;14.422;2023-04-26T12:45:29;3.67;;;2.67;;
1358;SDS011;673;48.098;14.422;2023-04-26T12:47:56;5.20;;;2.70;;
1358;SDS011;673;48.098;14.422;2023-04-26T12:50:23;4.67;;;2.13;;
1358;SDS011;673;48.098;14.422;2023-04-26T12:52:53;2.73;;;2.53;;
1358;SDS011;673;48.098;14.422;2023-04-26T12:55:20;2.40;;;2.10;;
1358;SDS011;673;48.098;14.422;2023-04-26T12:57:47;1.80;;;1.63;;
1358;SDS011;673;48.098;14.422;2023-04-26T13:00:15;2.30;;;2.10;;
1358;SDS011;673;48.098;14.422;2023-04-26T13:02:42;2.30;;;1.73;;
1358;SDS011;673;48.098;14.422;2023-04-26T13:05:10;3.53;;;2.40;;
1358;SDS011;673;48.098;14.422;2023-04-26T13:07:38;4.40;;;3.27;;
1358;SDS011;673;48.098;14.422;2023-04-26T13:10:09;3.77;;;1.90;;
1358;SDS011;673;48.098;14.422;2023-04-26T13:12:36;2.90;;;1.70;;
1358;SDS011;673;48.098;14.422;2023-04-26T13:15:04;5.60;;;2.70;;
1358;SDS011;673;48.098;14.422;2023-04-26T13:17:33;3.27;;;2.93;;
1358;SDS011;673;48.098;14.422;2023-04-26T13:20:01;2.40;;;1.60;;
1358;SDS011;673;48.098;14.422;2023-04-26T13:22:30;2.60;;;1.93;;
1358;SDS011;673;48.098;14.422;2023-04-26T13:24:57;4.47;;;2.43;;
1358;SDS011;673;48.098;14.422;2023-04-26T13:27:25;4.27;;;2.40;;
1358;SDS011;673;48.098;14.422;2023-04-26T13:29:52;7.40;;;4.20;;
1358;SDS011;673;48.098;14.422;2023-04-26T13:32:19;3.90;;;2.07;;
1358;SDS011;673;48.098;14.422;2023-04-26T13:34:46;3.63;;;1.80;;
1358;SDS011;673;48.098;14.422;2023-04-26T13:37:14;2.63;;;2.40;;
1358;SDS011;673;48.098;14.422;2023-04-26T13:39:44;8.90;;;3.33;;
1358;SDS011;673;48.098;14.422;2023-04-26T13:42:12;2.10;;;2.00;;
1358;SDS011;673;48.098;14.422;2023-04-26T13:44:40;6.27;;;2.97;;
1358;SDS011;673;48.098;14.422;2023-04-26T13:47:07;2.23;;;2.10;;
1358;SDS011;673;48.098;14.422;2023-04-26T13:49:34;2.37;;;1.83;;
1358;SDS011;673;48.098;14.422;2023-04-26T13:52:01;3.40;;;1.90;;
1358;SDS011;673;48.098;14.422;2023-04-26T13:54:28;3.93;;;2.10;;
1358;SDS011;673;48.098;14.422;2023-04-26T13:56:55;3.83;;;2.63;;
1358;SDS011;673;48.098;14.422;2023-04-26T13:59:23;6.90;;;2.30;;
1358;SDS011;673;48.098;14.422;2023-04-26T14:01:52;3.30;;;2.00;;
1358;SDS011;673;48.098;14.422;2023-04-26T14:04:20;2.27;;;1.50;;
1358;SDS011;673;48.098;14.422;2023-04-26T14:06:47;5.83;;;2.43;;
1358;SDS011;673;48.098;14.422;2023-04-26T14:09:14;2.70;;;1.87;;
1358;SDS011;673;48.098;14.422;2023-04-26T14:11:41;3.80;;;2.23;;
1358;SDS011;673;48.098;14.422;2023-04-26T14:14:08;3.13;;;2.10;;
1358;SDS011;673;48.098;14.422;2023-04-26T14:16:36;3.37;;;1.90;;
1358;SDS011;673;48.098;14.422;2023-04-26T14:19:04;5.13;;;1.60;;
1358;SDS011;673;48.098;14.422;2023-04-26T14:21:31;5.40;;;2.60;;
1358;SDS011;673;48.098;14.422;2023-04-26T14:23:58;3.40;;;1.67;;
1358;SDS011;673;48.098;14.422;2023-04-26T14:26:25;3.90;;;2.37;;
1358;SDS011;673;48.098;14.422;2023-04-26T14:28:52;3.13;;;1.43;;
1358;SDS011;673;48.098;14.422;2023-04-26T14:31:19;3.23;;;1.83;;
1358;SDS011;673;48.098;14.422;2023-04-26T14:33:48;1.90;;;1.50;;
1358;SDS011;673;48.098;14.422;2023-04-26T14:36:17;6.50;;;1.60;;
1358;SDS011;673;48.098;14.422;2023-04-26T14:38:44;4.40;;;1.87;;
1358;SDS011;673;48.098;14.422;2023-04-26T14:41:12;3.37;;;1.40;;
1358;SDS011;673;48.098;14.422;2023-04-26T14:43:40;3.00;;;1.00;;
1358;SDS011;673;48.098;14.422;2023-04-26T14:46:07;1.40;;;1.10;;
1358;SDS011;673;48.098;14.422;2023-04-26T14:48:34;1.97;;;1.10;;
1358;SDS011;673;48.098;14.422;2023-04-26T14:51:01;2.90;;;1.30;;
1358;SDS011;673;48.098;14.422;2023-04-26T14:53:30;4.20;;;1.60;;
1358;SDS011;673;48.098;14.422;2023-04-26T14:55:57;6.43;;;2.00;;
1358;SDS011;673;48.098;14.422;2023-04-26T14:58:30;4.93;;;2.10;;
1358;SDS011;673;48.098;14.422;2023-04-26T15:00:57;1.67;;;1.33;;
1358;SDS011;673;48.098;14.422;2023-04-26T15:03:24;2.87;;;2.10;;
1358;SDS011;673;48.098;14.422;2023-04-26T15:05:51;1.53;;;1.43;;
1358;SDS011;673;48.098;14.422;2023-04-26T15:08:18;2.30;;;1.40;;
1358;SDS011;673;48.098;14.422;2023-04-26T15:10:46;1.50;;;1.40;;
1358;SDS011;673;48.098;14.422;2023-04-26T15:13:14;4.90;;;1.77;;
1358;SDS011;673;48.098;14.422;2023-04-26T15:15:41;2.80;;;2.07;;
1358;SDS011;673;48.098;14.422;2023-04-26T15:18:08;15.50;;;3.10;;
1358;SDS011;673;48.098;14.422;2023-04-26T15:20:37;3.07;;;2.00;;
1358;SDS011;673;48.098;14.422;2023-04-26T15:23:04;4.67;;;1.70;;
1358;SDS011;673;48.098;14.422;2023-04-26T15:25:33;2.10;;;1.73;;
1358;SDS011;673;48.098;14.422;2023-04-26T15:28:02;4.50;;;1.87;;
1358;SDS011;673;48.098;14.422;2023-04-26T15:30:29;6.03;;;1.93;;
1358;SDS011;673;48.098;14.422;2023-04-26T15:32:56;3.60;;;2.03;;
1358;SDS011;673;48.098;14.422;2023-04-26T15:35:23;1.43;;;1.30;;
1358;SDS011;673;48.098;14.422;2023-04-26T15:37:50;4.97;;;2.67;;